createdAt,value
2022-11-14T00:00:50.239Z,102011.47
2022-11-14T00:03:36.374Z,102009.44
2022-11-14T00:06:21.806Z,102006.75
2022-11-14T00:09:07.899Z,102000.59
2022-11-14T00:11:53.899Z,101994.88
2022-11-14T00:14:40.090Z,101997.72
2022-11-14T00:17:25.531Z,101991.97
2022-11-14T00:20:13.136Z,101994.66
2022-11-14T00:22:58.820Z,101991.38
2022-11-14T00:25:46.103Z,101992.00
2022-11-14T00:28:31.723Z,101994.66
2022-11-14T00:31:17.721Z,101993.44
2022-11-14T00:34:02.892Z,101980.69
2022-11-14T00:36:48.842Z,101989.75
2022-11-14T00:39:34.083Z,101981.75
2022-11-14T00:42:19.935Z,101980.28
2022-11-14T00:45:06.071Z,101974.31
2022-11-14T00:47:51.400Z,101977.81
2022-11-14T00:50:37.905Z,101971.22
2022-11-14T00:53:23.597Z,101959.50
2022-11-14T00:56:08.891Z,101958.66
2022-11-14T00:58:54.927Z,101960.25
2022-11-14T01:01:40.262Z,101950.34
2022-11-14T01:04:25.952Z,101953.44
2022-11-14T01:07:11.436Z,101945.19
2022-11-14T01:09:57.069Z,101947.59
2022-11-14T01:12:42.499Z,101949.63
2022-11-14T01:15:28.425Z,101945.69
2022-11-14T01:18:17.803Z,101945.28
2022-11-14T01:21:10.284Z,101931.69
2022-11-14T01:23:55.893Z,101929.81
2022-11-14T01:26:41.595Z,101924.03
2022-11-14T01:29:27.589Z,101929.78
2022-11-14T01:32:13.436Z,101922.94
2022-11-14T01:34:58.725Z,101922.31
2022-11-14T01:37:44.564Z,101920.41
2022-11-14T01:40:30.489Z,101929.81
2022-11-14T01:43:19.745Z,101912.75
2022-11-14T01:46:42.236Z,101920.50
2022-11-14T01:49:41.956Z,101918.69
2022-11-14T01:52:36.125Z,101910.28
2022-11-14T01:55:21.953Z,101900.25
2022-11-14T01:58:07.687Z,101897.38
2022-11-14T02:00:53.299Z,101896.19
2022-11-14T02:03:40.542Z,101899.50
2022-11-14T02:06:30.096Z,101898.94
2022-11-14T02:09:16.177Z,101885.19
2022-11-14T02:12:06.683Z,101881.56
2022-11-14T02:14:56.056Z,101875.41
2022-11-14T02:17:43.095Z,101876.06
2022-11-14T02:20:35.878Z,101862.31
2022-11-14T02:23:28.097Z,101871.38
2022-11-14T02:26:13.441Z,101861.53
2022-11-14T02:28:59.369Z,101860.69
2022-11-14T02:31:44.487Z,101869.13
2022-11-14T02:34:30.288Z,101858.66
2022-11-14T02:37:15.516Z,101843.06
2022-11-14T02:40:01.318Z,101843.69
2022-11-14T02:42:47.055Z,101845.16
2022-11-14T02:45:33.025Z,101835.69
2022-11-14T02:48:18.690Z,101829.16
2022-11-14T02:51:04.395Z,101836.72
2022-11-14T02:53:49.754Z,101831.56
2022-11-14T02:56:35.583Z,101824.97
2022-11-14T02:59:20.975Z,101829.06
2022-11-14T03:02:06.975Z,101827.00
2022-11-14T03:04:52.234Z,101822.88
2022-11-14T03:07:37.866Z,101817.56
2022-11-14T03:10:24.492Z,101815.91
2022-11-14T03:13:10.695Z,101810.75
2022-11-14T03:15:56.489Z,101817.56
2022-11-14T03:18:42.490Z,101806.06
2022-11-14T03:21:27.894Z,101811.81
2022-11-14T03:24:13.584Z,101803.81
2022-11-14T03:26:58.871Z,101810.78
2022-11-14T03:29:44.496Z,101804.00
2022-11-14T03:32:29.789Z,101806.88
2022-11-14T03:35:15.627Z,101811.81
2022-11-14T03:38:01.177Z,101806.69
2022-11-14T03:40:47.120Z,101799.69
2022-11-14T03:43:34.232Z,101792.91
2022-11-14T03:46:20.557Z,101784.69
2022-11-14T03:49:06.314Z,101784.25
2022-11-14T03:51:52.142Z,101784.66
2022-11-14T03:54:38.256Z,101776.44
2022-11-14T03:57:24.126Z,101785.06
2022-11-14T04:00:10.632Z,101779.91
2022-11-14T04:02:57.942Z,101787.09
2022-11-14T04:05:46.421Z,101780.94
2022-11-14T04:08:33.217Z,101771.50
2022-11-14T04:11:19.695Z,101781.34
2022-11-14T04:14:05.701Z,101771.47
2022-11-14T04:16:51.343Z,101770.03
2022-11-14T04:19:36.762Z,101764.50
2022-11-14T04:22:21.939Z,101769.44
2022-11-14T04:25:09.589Z,101755.91
2022-11-14T04:27:55.108Z,101758.38
2022-11-14T04:30:42.133Z,101760.03
2022-11-14T04:33:27.880Z,101766.19
2022-11-14T04:36:13.547Z,101761.25
2022-11-14T04:38:59.160Z,101752.03
2022-11-14T04:41:45.336Z,101748.94
2022-11-14T04:44:31.039Z,101740.34
2022-11-14T04:47:16.493Z,101749.81
2022-11-14T04:50:02.134Z,101749.81
2022-11-14T04:52:47.644Z,101749.59
2022-11-14T04:55:33.101Z,101747.56
2022-11-14T04:58:18.367Z,101744.69
2022-11-14T05:01:11.441Z,101742.44
2022-11-14T05:03:57.344Z,101738.13
2022-11-14T05:06:42.959Z,101746.56
2022-11-14T05:09:29.128Z,101737.13
2022-11-14T05:12:14.479Z,101742.66
2022-11-14T05:15:00.540Z,101733.03
2022-11-14T05:17:46.001Z,101736.72
2022-11-14T05:20:31.467Z,101739.00
2022-11-14T05:23:23.307Z,101726.66
2022-11-14T05:26:15.773Z,101736.75
2022-11-14T05:29:01.411Z,101728.72
2022-11-14T05:31:47.084Z,101731.41
2022-11-14T05:34:32.660Z,101730.41
2022-11-14T05:37:18.655Z,101734.72
2022-11-14T05:40:05.335Z,101733.91
2022-11-14T05:42:50.660Z,101737.19
2022-11-14T05:45:36.031Z,101728.16
2022-11-14T05:48:21.574Z,101737.19
2022-11-14T05:51:10.530Z,101738.00
2022-11-14T05:53:56.071Z,101724.88
2022-11-14T05:56:41.348Z,101723.03
2022-11-14T05:59:27.629Z,101717.88
2022-11-14T06:02:14.304Z,101720.72
2022-11-14T06:05:00.000Z,101721.34
2022-11-14T06:07:46.861Z,101725.03
2022-11-14T06:10:35.238Z,101711.69
2022-11-14T06:13:21.022Z,101717.63
2022-11-14T06:16:13.157Z,101711.06
2022-11-14T06:18:58.848Z,101705.13
2022-11-14T06:21:44.390Z,101716.63
2022-11-14T06:24:30.010Z,101719.69
2022-11-14T06:27:15.574Z,101712.09
2022-11-14T06:30:01.154Z,101719.28
2022-11-14T06:32:46.818Z,101706.72
2022-11-14T06:35:33.294Z,101695.44
2022-11-14T06:38:18.919Z,101706.31
2022-11-14T06:41:10.165Z,101712.88
2022-11-14T06:43:55.983Z,101701.81
2022-11-14T06:46:41.614Z,101710.81
2022-11-14T06:49:27.893Z,101698.72
2022-11-14T06:52:13.711Z,101704.66
2022-11-14T06:54:59.724Z,101712.47
2022-11-14T06:57:45.499Z,101707.53
2022-11-14T07:00:31.145Z,101712.66
2022-11-14T07:03:16.619Z,101703.03
2022-11-14T07:06:03.994Z,101721.72
2022-11-14T07:08:50.061Z,101718.22
2022-11-14T07:11:36.538Z,101713.72
2022-11-14T07:14:22.617Z,101723.16
2022-11-14T07:17:08.340Z,101708.78
2022-11-14T07:19:53.751Z,101712.31
2022-11-14T07:22:39.736Z,101717.88
2022-11-14T07:25:25.370Z,101720.97
2022-11-14T07:28:10.873Z,101716.25
2022-11-14T07:30:56.760Z,101712.34
2022-11-14T07:33:44.148Z,101707.22
2022-11-14T07:36:29.808Z,101708.06
2022-11-14T07:39:15.802Z,101707.66
2022-11-14T07:42:01.530Z,101704.19
2022-11-14T07:44:46.953Z,101708.09
2022-11-14T07:47:32.252Z,101700.91
2022-11-14T07:50:20.366Z,101706.06
2022-11-14T07:53:06.511Z,101707.69
2022-11-14T07:55:51.967Z,101702.34
2022-11-14T07:58:41.835Z,101700.72
2022-11-14T08:01:27.995Z,101699.88
2022-11-14T08:04:14.150Z,101704.00
2022-11-14T08:07:01.460Z,101709.97
2022-11-14T08:09:47.876Z,101700.91
2022-11-14T08:12:33.430Z,101695.78
2022-11-14T08:15:18.938Z,101690.84
2022-11-14T08:18:04.940Z,101697.63
2022-11-14T08:20:50.459Z,101692.66
2022-11-14T08:23:35.990Z,101693.88
2022-11-14T08:26:21.421Z,101687.69
2022-11-14T08:29:07.943Z,101690.06
2022-11-14T08:31:57.117Z,101689.56
2022-11-14T08:34:45.823Z,101682.25
2022-11-14T08:37:31.151Z,101678.69
2022-11-14T08:40:17.276Z,101674.34
2022-11-14T08:43:03.215Z,101664.72
2022-11-14T08:45:48.828Z,101668.69
2022-11-14T08:48:34.717Z,101663.84
2022-11-14T08:51:20.583Z,101655.53
2022-11-14T08:54:06.857Z,101658.84
2022-11-14T08:56:52.539Z,101667.91
2022-11-14T08:59:37.940Z,101655.63
2022-11-14T09:02:23.888Z,101656.59
2022-11-14T09:05:09.275Z,101665.09
2022-11-14T09:07:55.410Z,101651.44
2022-11-14T09:10:41.382Z,101652.50
2022-11-14T09:13:27.711Z,101641.59
2022-11-14T09:16:13.425Z,101629.31
2022-11-14T09:18:59.107Z,101633.81
2022-11-14T09:21:44.828Z,101626.00
2022-11-14T09:24:30.451Z,101619.66
2022-11-14T09:27:17.174Z,101607.06
2022-11-14T09:30:03.841Z,101617.41
2022-11-14T09:32:50.496Z,101613.84
2022-11-14T09:35:37.874Z,101610.25
2022-11-14T09:38:23.621Z,101611.16
2022-11-14T09:41:21.569Z,101605.22
2022-11-14T09:44:33.290Z,101599.25
2022-11-14T09:47:30.551Z,101596.06
2022-11-14T09:50:34.472Z,101600.09
2022-11-14T09:53:26.752Z,101601.13
2022-11-14T09:56:26.127Z,101586.81
2022-11-14T09:59:13.443Z,101578.75
2022-11-14T10:02:19.389Z,101578.28
2022-11-14T10:05:16.773Z,101568.25
2022-11-14T10:08:37.185Z,101561.88
2022-11-14T10:11:38.939Z,101548.13
2022-11-14T10:15:05.532Z,101546.16
2022-11-14T10:18:33.554Z,101531.09
2022-11-14T10:21:40.673Z,101518.03
2022-11-14T10:24:54.054Z,101531.88
2022-11-14T10:28:04.869Z,101536.22
2022-11-14T10:31:02.849Z,101530.84
2022-11-14T10:33:57.730Z,101523.69
2022-11-14T10:37:05.133Z,101519.75
2022-11-14T10:39:55.444Z,101520.50
2022-11-14T10:42:45.554Z,101521.88
2022-11-14T10:46:16.156Z,101504.38
2022-11-14T10:49:02.346Z,101505.44
2022-11-14T10:51:54.410Z,101501.44
2022-11-14T10:54:56.213Z,101497.38
2022-11-14T10:57:43.834Z,101488.69
2022-11-14T11:00:30.077Z,101492.53
2022-11-14T11:03:15.836Z,101480.38
2022-11-14T11:06:03.116Z,101472.38
2022-11-14T11:09:06.911Z,101461.56
2022-11-14T11:11:59.001Z,101462.56
2022-11-14T11:14:46.979Z,101457.22
2022-11-14T11:17:38.561Z,101454.31
2022-11-14T11:20:37.941Z,101451.81
2022-11-14T11:23:28.183Z,101441.06
2022-11-14T11:26:28.553Z,101440.91
2022-11-14T11:29:18.569Z,101437.81
2022-11-14T11:32:04.493Z,101433.72
2022-11-14T11:34:51.392Z,101430.25
2022-11-14T11:37:57.159Z,101425.84
2022-11-14T11:40:46.743Z,101419.72
2022-11-14T11:43:45.670Z,101413.19
2022-11-14T11:46:44.993Z,101402.09
2022-11-14T11:49:30.755Z,101406.59
2022-11-14T11:52:36.095Z,101395.06
2022-11-14T11:55:30.857Z,101401.28
2022-11-14T11:58:55.509Z,101399.63
2022-11-14T12:01:41.113Z,101389.78
2022-11-14T12:04:26.622Z,101377.38
2022-11-14T12:07:19.775Z,101385.97
2022-11-14T12:10:22.153Z,101385.56
2022-11-14T12:13:51.471Z,101382.94
2022-11-14T12:16:55.145Z,101384.38
2022-11-14T12:20:14.370Z,101387.13
2022-11-14T12:23:12.367Z,101384.97
2022-11-14T12:26:48.082Z,101376.53
2022-11-14T12:30:17.526Z,101385.34
2022-11-14T12:33:28.854Z,101383.28
2022-11-14T12:36:14.724Z,101391.16
2022-11-14T12:39:02.008Z,101382.59
2022-11-14T12:41:48.568Z,101389.69
2022-11-14T12:44:38.281Z,101388.88
2022-11-14T12:47:27.649Z,101384.47
2022-11-14T12:50:41.900Z,101383.81
2022-11-14T12:53:36.177Z,101374.13
2022-11-14T12:56:31.028Z,101380.19
2022-11-14T12:59:25.932Z,101381.38
2022-11-14T13:02:58.934Z,101383.91
2022-11-14T13:05:53.648Z,101382.28
2022-11-14T13:09:15.319Z,101377.41
2022-11-14T13:12:58.194Z,101389.63
2022-11-14T13:16:14.045Z,101371.81
2022-11-14T13:19:30.810Z,101367.09
2022-11-14T13:22:24.090Z,101370.63
2022-11-14T13:25:09.905Z,101369.81
2022-11-14T13:28:21.733Z,101368.50
2022-11-14T13:31:16.700Z,101364.34
2022-11-14T13:34:33.093Z,101369.03
2022-11-14T13:38:03.720Z,101366.84
2022-11-14T13:41:41.356Z,101358.97
2022-11-14T13:45:01.678Z,101359.13
2022-11-14T13:48:21.006Z,101359.31
2022-11-14T13:51:41.314Z,101355.41
2022-11-14T13:54:18.563Z,101354.47
2022-11-14T13:57:18.384Z,101342.28
2022-11-14T14:00:19.976Z,101343.09
2022-11-14T14:03:51.991Z,101353.53
2022-11-14T14:07:17.493Z,101355.88
2022-11-14T14:10:31.874Z,101350.81
2022-11-14T14:13:55.585Z,101353.00
2022-11-14T14:17:02.523Z,101357.22
2022-11-14T14:20:22.313Z,101343.81
2022-11-14T14:23:29.874Z,101357.41
2022-11-14T14:26:48.324Z,101360.63
2022-11-14T14:30:08.844Z,101354.31
2022-11-14T14:33:15.277Z,101343.09
2022-11-14T14:36:00.841Z,101351.41
2022-11-14T14:38:47.767Z,101352.34
2022-11-14T14:41:34.822Z,101348.44
2022-11-14T14:44:22.271Z,101345.81
2022-11-14T14:47:39.987Z,101352.59
2022-11-14T14:50:42.550Z,101345.31
2022-11-14T14:53:31.816Z,101344.81
2022-11-14T14:56:24.978Z,101343.53
2022-11-14T14:59:23.910Z,101340.28
2022-11-14T15:02:17.503Z,101346.25
2022-11-14T15:05:05.525Z,101343.50
2022-11-14T15:07:55.483Z,101339.16
2022-11-14T15:10:42.059Z,101333.16
2022-11-14T15:13:30.202Z,101334.97
2022-11-14T15:16:16.235Z,101346.97
2022-11-14T15:19:02.630Z,101344.50
2022-11-14T15:22:25.942Z,101349.53
2022-11-14T15:25:19.449Z,101346.13
2022-11-14T15:28:18.003Z,101338.25
2022-11-14T15:31:05.239Z,101340.16
2022-11-14T15:34:27.825Z,101349.50
2022-11-14T15:37:16.452Z,101339.16
2022-11-14T15:40:23.262Z,101340.91
2022-11-14T15:43:43.780Z,101339.63
2022-11-14T15:46:35.898Z,101336.00
2022-11-14T15:49:25.679Z,101350.66
2022-11-14T15:52:25.095Z,101337.13
2022-11-14T15:55:21.489Z,101333.19
2022-11-14T15:58:28.909Z,101335.25
2022-11-14T16:01:20.401Z,101328.88
2022-11-14T16:04:06.130Z,101335.25
2022-11-14T16:06:51.772Z,101323.44
2022-11-14T16:09:37.306Z,101327.31
2022-11-14T16:12:22.835Z,101325.78
2022-11-14T16:15:09.659Z,101330.63
2022-11-14T16:17:55.132Z,101320.06
2022-11-14T16:20:41.860Z,101331.41
2022-11-14T16:23:27.623Z,101325.16
2022-11-14T16:26:13.427Z,101327.91
2022-11-14T16:28:58.823Z,101322.84
2022-11-14T16:31:44.769Z,101336.09
2022-11-14T16:34:30.176Z,101338.41
2022-11-14T16:37:16.425Z,101343.81
2022-11-14T16:40:02.215Z,101338.75
2022-11-14T16:42:49.827Z,101333.22
2022-11-14T16:45:40.585Z,101342.94
2022-11-14T16:48:26.122Z,101340.97
2022-11-14T16:51:33.244Z,101343.50
2022-11-14T16:54:19.158Z,101337.94
2022-11-14T16:57:04.754Z,101333.69
2022-11-14T16:59:51.779Z,101339.09
2022-11-14T17:02:37.583Z,101334.19
2022-11-14T17:05:23.503Z,101331.56
2022-11-14T17:08:09.536Z,101328.94
2022-11-14T17:10:54.944Z,101322.38
2022-11-14T17:13:40.600Z,101330.22
2022-11-14T17:16:26.485Z,101324.09
2022-11-14T17:19:11.695Z,101327.84
2022-11-14T17:21:57.039Z,101338.75
2022-11-14T17:24:42.796Z,101335.28
2022-11-14T17:27:28.570Z,101340.44
2022-11-14T17:30:15.596Z,101338.41
2022-11-14T17:33:01.424Z,101342.16
2022-11-14T17:35:46.867Z,101324.09
2022-11-14T17:38:37.282Z,101336.84
2022-11-14T17:41:23.228Z,101340.53
2022-11-14T17:44:10.001Z,101333.38
2022-11-14T17:46:55.773Z,101340.78
2022-11-14T17:49:41.673Z,101334.41
2022-11-14T17:52:27.436Z,101332.75
2022-11-14T17:55:13.115Z,101327.03
2022-11-14T17:57:59.030Z,101332.78
2022-11-14T18:00:44.545Z,101323.34
2022-11-14T18:03:29.958Z,101316.00
2022-11-14T18:06:19.436Z,101306.34
2022-11-14T18:09:08.144Z,101312.53
2022-11-14T18:11:56.146Z,101312.72
2022-11-14T18:14:41.795Z,101318.50
2022-11-14T18:17:27.540Z,101319.72
2022-11-14T18:20:13.008Z,101316.66
2022-11-14T18:22:58.650Z,101309.50
2022-11-14T18:25:44.011Z,101311.94
2022-11-14T18:28:29.842Z,101301.31
2022-11-14T18:31:15.483Z,101303.97
2022-11-14T18:34:02.888Z,101299.88
2022-11-14T18:36:48.734Z,101293.94
2022-11-14T18:39:34.585Z,101283.91
2022-11-14T18:42:19.924Z,101274.47
2022-11-14T18:45:06.228Z,101284.72
2022-11-14T18:47:51.876Z,101268.72
2022-11-14T18:50:37.355Z,101267.91
2022-11-14T18:53:23.475Z,101260.31
2022-11-14T18:56:12.792Z,101270.56
2022-11-14T18:58:58.433Z,101273.88
2022-11-14T19:01:44.570Z,101265.69
2022-11-14T19:04:30.002Z,101270.41
2022-11-14T19:07:15.430Z,101278.59
2022-11-14T19:10:01.312Z,101284.75
2022-11-14T19:12:50.418Z,101280.84
2022-11-14T19:15:36.279Z,101275.31
2022-11-14T19:18:22.166Z,101277.78
2022-11-14T19:21:07.508Z,101272.06
2022-11-14T19:23:55.890Z,101270.00
2022-11-14T19:26:41.488Z,101270.22
2022-11-14T19:29:26.790Z,101272.47
2022-11-14T19:32:12.287Z,101265.72
2022-11-14T19:34:57.772Z,101261.41
2022-11-14T19:37:43.164Z,101257.31
2022-11-14T19:40:30.126Z,101254.44
2022-11-14T19:43:15.486Z,101270.22
2022-11-14T19:46:04.137Z,101278.63
2022-11-14T19:48:49.979Z,101254.25
2022-11-14T19:51:35.497Z,101238.06
2022-11-14T19:54:20.959Z,101236.22
2022-11-14T19:57:07.106Z,101254.84
2022-11-14T19:59:52.432Z,101249.31
2022-11-14T20:02:40.503Z,101246.88
2022-11-14T20:05:25.968Z,101250.56
2022-11-14T20:08:11.773Z,101244.63
2022-11-14T20:11:05.496Z,101247.69
2022-11-14T20:13:51.439Z,101246.25
2022-11-14T20:16:37.356Z,101257.72
2022-11-14T20:19:22.974Z,101241.13
2022-11-14T20:22:08.635Z,101242.16
2022-11-14T20:24:53.993Z,101234.59
2022-11-14T20:27:39.492Z,101231.91
2022-11-14T20:30:25.146Z,101231.91
2022-11-14T20:33:11.661Z,101238.22
2022-11-14T20:36:03.793Z,101240.28
2022-11-14T20:38:50.346Z,101248.47
2022-11-14T20:41:36.294Z,101243.75
2022-11-14T20:44:21.830Z,101244.38
2022-11-14T20:47:10.993Z,101233.31
2022-11-14T20:49:56.983Z,101229.00
2022-11-14T20:52:45.538Z,101231.06
2022-11-14T20:55:31.142Z,101234.94
2022-11-14T20:58:17.473Z,101235.97
2022-11-14T21:01:02.769Z,101231.06
2022-11-14T21:03:48.917Z,101229.63
2022-11-14T21:06:34.220Z,101234.13
2022-11-14T21:09:19.642Z,101234.13
2022-11-14T21:12:05.476Z,101231.66
2022-11-14T21:14:51.259Z,101233.72
2022-11-14T21:17:36.497Z,101225.50
2022-11-14T21:20:24.868Z,101229.19
2022-11-14T21:23:10.427Z,101216.88
2022-11-14T21:26:10.936Z,101219.13
2022-11-14T21:29:03.066Z,101211.97
2022-11-14T21:31:48.897Z,101210.13
2022-11-14T21:34:34.479Z,101215.03
2022-11-14T21:37:20.342Z,101209.09
2022-11-14T21:40:06.545Z,101215.44
2022-11-14T21:42:53.146Z,101202.31
2022-11-14T21:45:38.435Z,101199.25
2022-11-14T21:48:25.292Z,101197.41
2022-11-14T21:51:25.091Z,101198.00
2022-11-14T21:54:10.740Z,101191.47
2022-11-14T21:56:56.664Z,101187.16
2022-11-14T21:59:42.457Z,101190.22
2022-11-14T22:02:46.597Z,101196.97
2022-11-14T22:05:32.550Z,101195.53
2022-11-14T22:08:18.215Z,101202.69
2022-11-14T22:11:03.910Z,101197.16
2022-11-14T22:13:50.050Z,101191.84
2022-11-14T22:16:36.117Z,101181.59
2022-11-14T22:19:21.614Z,101189.78
2022-11-14T22:22:08.104Z,101185.69
2022-11-14T22:24:53.463Z,101193.81
2022-11-14T22:27:39.440Z,101181.94
2022-11-14T22:30:24.626Z,101183.59
2022-11-14T22:33:10.423Z,101170.06
2022-11-14T22:36:11.688Z,101179.28
2022-11-14T22:38:57.820Z,101186.03
2022-11-14T22:41:43.385Z,101179.06
2022-11-14T22:44:28.928Z,101177.63
2022-11-14T22:47:14.565Z,101183.16
2022-11-14T22:50:00.826Z,101181.09
2022-11-14T22:52:46.249Z,101179.25
2022-11-14T22:55:32.243Z,101172.72
2022-11-14T22:58:17.703Z,101179.66
2022-11-14T23:01:16.330Z,101175.38
2022-11-14T23:04:04.724Z,101175.38
2022-11-14T23:06:50.817Z,101175.78
2022-11-14T23:09:36.095Z,101172.50
2022-11-14T23:12:21.934Z,101161.03
2022-11-14T23:15:07.646Z,101166.16
2022-11-14T23:17:53.707Z,101166.56
2022-11-14T23:20:39.120Z,101156.72
2022-11-14T23:23:24.672Z,101164.09
2022-11-14T23:26:19.002Z,101167.59
2022-11-14T23:29:04.840Z,101161.03
2022-11-14T23:31:50.435Z,101143.03
2022-11-14T23:34:36.609Z,101152.44
2022-11-14T23:37:22.008Z,101156.09
2022-11-14T23:40:08.659Z,101147.91
2022-11-14T23:42:54.075Z,101157.13
2022-11-14T23:45:43.037Z,101149.16
2022-11-14T23:48:28.550Z,101142.59
2022-11-14T23:51:14.684Z,101143.00
2022-11-14T23:54:00.170Z,101139.13
2022-11-14T23:56:45.979Z,101140.34
2022-11-14T23:59:31.244Z,101127.88
